Milford, Indiana
Current Conditions -  °F | °C
As of 12:53 PM on Thursday 23 Oct 2014 (Local Time) from KGSH Reporting Station
Few Clouds Few Clouds  
Wind Chill: 54°   Ceiling: Unl
Heat Index: 54°   Visibility: 10mi
Dew Point: 43°   Wind: 8mph
Humidity: 66%   Direction: 270°W
Pressure: 30.22"   Gusts: NA
Location:  41.41°N, 85.85°W
Report Text: KGSH 231653Z AUTO 27007KT 10SM FEW025 12/06 A3022 RMK AO2 SLP239 T01220061
Loading
Personal Weather Stations






























Interactive Weather Map
Tropical Storm Tracking
New forecast layout! Learn more

10-Day Weather Forecast

Advertisements
Track Severe Weather on mobile